sensor_id;sensor_type;location;lat;lon;timestamp;P1;durP1;ratioP1;P2;durP2;ratioP2
71038;SDS011;58692;43.212;27.908;2023-07-20T00:01:35;9.60;;;5.90;;
71038;SDS011;58692;43.212;27.908;2023-07-20T00:04:00;9.95;;;5.80;;
71038;SDS011;58692;43.212;27.908;2023-07-20T00:06:26;9.07;;;5.50;;
71038;SDS011;58692;43.212;27.908;2023-07-20T00:08:53;8.32;;;5.57;;
71038;SDS011;58692;43.212;27.908;2023-07-20T00:11:20;10.18;;;6.00;;
71038;SDS011;58692;43.212;27.908;2023-07-20T00:13:46;10.48;;;5.70;;
71038;SDS011;58692;43.212;27.908;2023-07-20T00:16:11;11.40;;;5.93;;
71038;SDS011;58692;43.212;27.908;2023-07-20T00:18:37;9.77;;;6.10;;
71038;SDS011;58692;43.212;27.908;2023-07-20T00:21:02;9.38;;;6.07;;
71038;SDS011;58692;43.212;27.908;2023-07-20T00:23:29;10.60;;;5.80;;
71038;SDS011;58692;43.212;27.908;2023-07-20T00:25:54;11.93;;;5.93;;
71038;SDS011;58692;43.212;27.908;2023-07-20T00:28:20;8.30;;;5.50;;
71038;SDS011;58692;43.212;27.908;2023-07-20T00:30:46;11.13;;;5.57;;
71038;SDS011;58692;43.212;27.908;2023-07-20T00:33:11;10.40;;;5.57;;
71038;SDS011;58692;43.212;27.908;2023-07-20T00:35:38;11.00;;;5.80;;
71038;SDS011;58692;43.212;27.908;2023-07-20T00:38:04;10.02;;;5.85;;
71038;SDS011;58692;43.212;27.908;2023-07-20T00:40:40;11.18;;;5.60;;
71038;SDS011;58692;43.212;27.908;2023-07-20T00:43:06;8.57;;;5.23;;
71038;SDS011;58692;43.212;27.908;2023-07-20T00:45:33;11.27;;;5.78;;
71038;SDS011;58692;43.212;27.908;2023-07-20T00:47:59;9.65;;;5.40;;
71038;SDS011;58692;43.212;27.908;2023-07-20T00:50:26;9.85;;;5.90;;
71038;SDS011;58692;43.212;27.908;2023-07-20T00:52:54;17.55;;;6.15;;
71038;SDS011;58692;43.212;27.908;2023-07-20T00:55:24;9.37;;;5.93;;
71038;SDS011;58692;43.212;27.908;2023-07-20T00:57:50;8.68;;;5.88;;
71038;SDS011;58692;43.212;27.908;2023-07-20T01:00:16;12.10;;;6.20;;
71038;SDS011;58692;43.212;27.908;2023-07-20T01:02:42;13.10;;;5.97;;
71038;SDS011;58692;43.212;27.908;2023-07-20T01:05:08;10.03;;;5.93;;
71038;SDS011;58692;43.212;27.908;2023-07-20T01:07:35;9.68;;;6.03;;
71038;SDS011;58692;43.212;27.908;2023-07-20T01:12:59;11.80;;;5.80;;
71038;SDS011;58692;43.212;27.908;2023-07-20T01:15:26;9.33;;;5.87;;
71038;SDS011;58692;43.212;27.908;2023-07-20T01:17:52;10.65;;;6.00;;
71038;SDS011;58692;43.212;27.908;2023-07-20T01:20:18;11.10;;;6.27;;
71038;SDS011;58692;43.212;27.908;2023-07-20T01:25:33;10.45;;;6.53;;
71038;SDS011;58692;43.212;27.908;2023-07-20T01:28:28;12.13;;;6.40;;
71038;SDS011;58692;43.212;27.908;2023-07-20T01:33:50;14.80;;;9.05;;
71038;SDS011;58692;43.212;27.908;2023-07-20T01:36:19;12.30;;;8.82;;
71038;SDS011;58692;43.212;27.908;2023-07-20T01:38:47;12.57;;;8.20;;
71038;SDS011;58692;43.212;27.908;2023-07-20T01:41:14;12.50;;;8.50;;
71038;SDS011;58692;43.212;27.908;2023-07-20T01:43:40;11.27;;;7.33;;
71038;SDS011;58692;43.212;27.908;2023-07-20T01:46:05;12.07;;;7.63;;
71038;SDS011;58692;43.212;27.908;2023-07-20T01:48:31;9.90;;;7.57;;
71038;SDS011;58692;43.212;27.908;2023-07-20T01:50:56;14.07;;;7.50;;
71038;SDS011;58692;43.212;27.908;2023-07-20T01:53:22;13.23;;;7.88;;
71038;SDS011;58692;43.212;27.908;2023-07-20T01:55:47;14.10;;;8.50;;
71038;SDS011;58692;43.212;27.908;2023-07-20T01:58:13;13.60;;;8.53;;
71038;SDS011;58692;43.212;27.908;2023-07-20T02:00:39;13.13;;;9.20;;
71038;SDS011;58692;43.212;27.908;2023-07-20T02:03:04;11.83;;;9.43;;
71038;SDS011;58692;43.212;27.908;2023-07-20T02:05:30;15.75;;;9.95;;
71038;SDS011;58692;43.212;27.908;2023-07-20T02:07:55;12.80;;;9.73;;
71038;SDS011;58692;43.212;27.908;2023-07-20T02:10:21;13.87;;;9.13;;
71038;SDS011;58692;43.212;27.908;2023-07-20T02:12:47;14.02;;;8.75;;
71038;SDS011;58692;43.212;27.908;2023-07-20T02:15:13;14.40;;;8.40;;
71038;SDS011;58692;43.212;27.908;2023-07-20T02:17:41;12.00;;;7.65;;
71038;SDS011;58692;43.212;27.908;2023-07-20T02:20:08;11.63;;;7.67;;
71038;SDS011;58692;43.212;27.908;2023-07-20T02:22:35;11.15;;;7.38;;
71038;SDS011;58692;43.212;27.908;2023-07-20T02:25:02;12.02;;;7.45;;
71038;SDS011;58692;43.212;27.908;2023-07-20T02:27:29;11.18;;;7.30;;
71038;SDS011;58692;43.212;27.908;2023-07-20T02:29:54;10.77;;;6.80;;
71038;SDS011;58692;43.212;27.908;2023-07-20T02:32:20;10.83;;;6.90;;
71038;SDS011;58692;43.212;27.908;2023-07-20T02:34:45;10.18;;;6.25;;
71038;SDS011;58692;43.212;27.908;2023-07-20T02:37:11;11.70;;;6.50;;
71038;SDS011;58692;43.212;27.908;2023-07-20T02:39:38;9.80;;;6.35;;
71038;SDS011;58692;43.212;27.908;2023-07-20T02:42:04;11.02;;;6.97;;
71038;SDS011;58692;43.212;27.908;2023-07-20T02:44:30;10.43;;;6.50;;
71038;SDS011;58692;43.212;27.908;2023-07-20T02:46:55;12.35;;;6.68;;
71038;SDS011;58692;43.212;27.908;2023-07-20T02:49:21;12.50;;;6.73;;
71038;SDS011;58692;43.212;27.908;2023-07-20T02:51:46;10.27;;;7.37;;
71038;SDS011;58692;43.212;27.908;2023-07-20T02:54:12;11.65;;;7.40;;
71038;SDS011;58692;43.212;27.908;2023-07-20T02:56:37;11.57;;;7.80;;
71038;SDS011;58692;43.212;27.908;2023-07-20T02:59:03;12.07;;;7.50;;
71038;SDS011;58692;43.212;27.908;2023-07-20T03:01:29;13.07;;;8.27;;
71038;SDS011;58692;43.212;27.908;2023-07-20T03:03:55;12.93;;;7.70;;
71038;SDS011;58692;43.212;27.908;2023-07-20T03:06:21;14.63;;;8.03;;
71038;SDS011;58692;43.212;27.908;2023-07-20T03:08:47;16.80;;;8.82;;
71038;SDS011;58692;43.212;27.908;2023-07-20T03:11:14;14.43;;;8.90;;
71038;SDS011;58692;43.212;27.908;2023-07-20T03:13:41;16.08;;;8.73;;
71038;SDS011;58692;43.212;27.908;2023-07-20T03:16:08;14.48;;;8.60;;
71038;SDS011;58692;43.212;27.908;2023-07-20T03:18:37;12.60;;;8.77;;
71038;SDS011;58692;43.212;27.908;2023-07-20T03:21:03;11.63;;;8.52;;
71038;SDS011;58692;43.212;27.908;2023-07-20T03:23:29;15.93;;;8.80;;
71038;SDS011;58692;43.212;27.908;2023-07-20T03:25:55;14.27;;;9.37;;
71038;SDS011;58692;43.212;27.908;2023-07-20T03:28:20;12.30;;;8.45;;
71038;SDS011;58692;43.212;27.908;2023-07-20T03:30:46;14.43;;;9.40;;
71038;SDS011;58692;43.212;27.908;2023-07-20T03:33:12;13.37;;;8.50;;
71038;SDS011;58692;43.212;27.908;2023-07-20T03:35:37;15.17;;;9.20;;
71038;SDS011;58692;43.212;27.908;2023-07-20T03:38:03;14.73;;;8.90;;
71038;SDS011;58692;43.212;27.908;2023-07-20T03:40:29;14.27;;;9.43;;
71038;SDS011;58692;43.212;27.908;2023-07-20T03:42:55;12.98;;;8.30;;
71038;SDS011;58692;43.212;27.908;2023-07-20T03:45:20;16.17;;;8.10;;
71038;SDS011;58692;43.212;27.908;2023-07-20T03:47:49;15.75;;;8.60;;
71038;SDS011;58692;43.212;27.908;2023-07-20T03:50:14;15.73;;;8.37;;
71038;SDS011;58692;43.212;27.908;2023-07-20T03:52:40;13.93;;;7.53;;
71038;SDS011;58692;43.212;27.908;2023-07-20T03:55:05;18.43;;;8.23;;
71038;SDS011;58692;43.212;27.908;2023-07-20T03:57:31;16.00;;;7.88;;
71038;SDS011;58692;43.212;27.908;2023-07-20T03:59:58;18.42;;;8.88;;
71038;SDS011;58692;43.212;27.908;2023-07-20T04:02:23;16.63;;;8.37;;
71038;SDS011;58692;43.212;27.908;2023-07-20T04:04:49;17.23;;;8.60;;
71038;SDS011;58692;43.212;27.908;2023-07-20T04:07:14;14.50;;;8.83;;
71038;SDS011;58692;43.212;27.908;2023-07-20T04:09:40;16.67;;;7.90;;
71038;SDS011;58692;43.212;27.908;2023-07-20T04:12:06;20.05;;;8.32;;
71038;SDS011;58692;43.212;27.908;2023-07-20T04:14:31;11.73;;;7.23;;
71038;SDS011;58692;43.212;27.908;2023-07-20T04:16:57;21.85;;;8.50;;
71038;SDS011;58692;43.212;27.908;2023-07-20T04:19:22;15.53;;;8.00;;
71038;SDS011;58692;43.212;27.908;2023-07-20T04:21:48;16.70;;;7.57;;
71038;SDS011;58692;43.212;27.908;2023-07-20T04:24:13;13.23;;;7.43;;
71038;SDS011;58692;43.212;27.908;2023-07-20T04:26:39;15.77;;;8.33;;
71038;SDS011;58692;43.212;27.908;2023-07-20T04:29:04;13.80;;;8.03;;
71038;SDS011;58692;43.212;27.908;2023-07-20T04:31:30;15.63;;;7.68;;
71038;SDS011;58692;43.212;27.908;2023-07-20T04:33:58;15.73;;;6.88;;
71038;SDS011;58692;43.212;27.908;2023-07-20T04:36:23;13.00;;;6.70;;
71038;SDS011;58692;43.212;27.908;2023-07-20T04:38:49;17.20;;;7.13;;
71038;SDS011;58692;43.212;27.908;2023-07-20T04:41:14;15.95;;;8.27;;
71038;SDS011;58692;43.212;27.908;2023-07-20T04:43:41;20.83;;;7.77;;
71038;SDS011;58692;43.212;27.908;2023-07-20T04:46:09;23.52;;;8.20;;
71038;SDS011;58692;43.212;27.908;2023-07-20T04:48:35;17.30;;;7.82;;
71038;SDS011;58692;43.212;27.908;2023-07-20T04:51:01;15.03;;;7.30;;
71038;SDS011;58692;43.212;27.908;2023-07-20T04:53:27;15.38;;;7.78;;
71038;SDS011;58692;43.212;27.908;2023-07-20T04:55:52;17.37;;;8.13;;
71038;SDS011;58692;43.212;27.908;2023-07-20T04:58:19;19.48;;;8.07;;
71038;SDS011;58692;43.212;27.908;2023-07-20T05:00:47;13.27;;;6.90;;
71038;SDS011;58692;43.212;27.908;2023-07-20T05:03:13;19.40;;;7.45;;
71038;SDS011;58692;43.212;27.908;2023-07-20T05:05:39;18.10;;;7.83;;
71038;SDS011;58692;43.212;27.908;2023-07-20T05:08:04;17.85;;;7.25;;
71038;SDS011;58692;43.212;27.908;2023-07-20T05:10:30;18.80;;;8.10;;
71038;SDS011;58692;43.212;27.908;2023-07-20T05:12:56;16.20;;;8.27;;
71038;SDS011;58692;43.212;27.908;2023-07-20T05:15:21;16.30;;;7.70;;
71038;SDS011;58692;43.212;27.908;2023-07-20T05:17:47;14.10;;;7.73;;
71038;SDS011;58692;43.212;27.908;2023-07-20T05:20:14;22.63;;;7.55;;
71038;SDS011;58692;43.212;27.908;2023-07-20T05:22:39;17.02;;;7.38;;
71038;SDS011;58692;43.212;27.908;2023-07-20T05:25:06;21.10;;;7.10;;
71038;SDS011;58692;43.212;27.908;2023-07-20T05:27:33;22.70;;;7.70;;
71038;SDS011;58692;43.212;27.908;2023-07-20T05:29:59;18.33;;;8.15;;
71038;SDS011;58692;43.212;27.908;2023-07-20T05:32:25;20.97;;;8.00;;
71038;SDS011;58692;43.212;27.908;2023-07-20T05:34:52;17.55;;;7.45;;
71038;SDS011;58692;43.212;27.908;2023-07-20T05:37:19;15.25;;;6.57;;
71038;SDS011;58692;43.212;27.908;2023-07-20T05:39:45;19.37;;;7.50;;
71038;SDS011;58692;43.212;27.908;2023-07-20T05:42:10;21.75;;;7.50;;
71038;SDS011;58692;43.212;27.908;2023-07-20T05:44:36;21.13;;;7.57;;
71038;SDS011;58692;43.212;27.908;2023-07-20T05:47:01;18.20;;;6.40;;
71038;SDS011;58692;43.212;27.908;2023-07-20T05:49:27;18.80;;;7.00;;
71038;SDS011;58692;43.212;27.908;2023-07-20T05:51:54;23.27;;;7.38;;
71038;SDS011;58692;43.212;27.908;2023-07-20T05:54:21;17.75;;;7.38;;
71038;SDS011;58692;43.212;27.908;2023-07-20T05:56:46;16.27;;;7.20;;
71038;SDS011;58692;43.212;27.908;2023-07-20T05:59:12;19.73;;;7.37;;
71038;SDS011;58692;43.212;27.908;2023-07-20T06:01:38;16.40;;;6.70;;
71038;SDS011;58692;43.212;27.908;2023-07-20T06:04:03;16.23;;;7.05;;
71038;SDS011;58692;43.212;27.908;2023-07-20T06:06:29;17.17;;;7.50;;
71038;SDS011;58692;43.212;27.908;2023-07-20T06:08:54;13.60;;;7.00;;
71038;SDS011;58692;43.212;27.908;2023-07-20T06:11:20;19.60;;;7.30;;
71038;SDS011;58692;43.212;27.908;2023-07-20T06:13:46;16.10;;;7.13;;
71038;SDS011;58692;43.212;27.908;2023-07-20T06:16:11;18.30;;;7.38;;
71038;SDS011;58692;43.212;27.908;2023-07-20T06:18:37;17.50;;;7.73;;
71038;SDS011;58692;43.212;27.908;2023-07-20T06:21:03;20.92;;;8.05;;
71038;SDS011;58692;43.212;27.908;2023-07-20T06:23:28;20.37;;;8.33;;
71038;SDS011;58692;43.212;27.908;2023-07-20T06:25:53;18.17;;;8.50;;
71038;SDS011;58692;43.212;27.908;2023-07-20T06:28:19;22.80;;;7.93;;
71038;SDS011;58692;43.212;27.908;2023-07-20T06:30:45;17.27;;;8.37;;
71038;SDS011;58692;43.212;27.908;2023-07-20T06:33:10;24.80;;;8.07;;
71038;SDS011;58692;43.212;27.908;2023-07-20T06:35:36;30.88;;;8.60;;
71038;SDS011;58692;43.212;27.908;2023-07-20T06:38:01;17.60;;;6.60;;
71038;SDS011;58692;43.212;27.908;2023-07-20T06:40:32;19.50;;;5.43;;
71038;SDS011;58692;43.212;27.908;2023-07-20T06:42:57;12.25;;;4.03;;
71038;SDS011;58692;43.212;27.908;2023-07-20T06:45:22;17.03;;;4.20;;
71038;SDS011;58692;43.212;27.908;2023-07-20T06:47:48;12.00;;;3.73;;
71038;SDS011;58692;43.212;27.908;2023-07-20T06:50:13;12.85;;;4.00;;
71038;SDS011;58692;43.212;27.908;2023-07-20T06:52:39;15.03;;;3.90;;
71038;SDS011;58692;43.212;27.908;2023-07-20T06:55:05;13.27;;;3.60;;
71038;SDS011;58692;43.212;27.908;2023-07-20T06:57:31;10.18;;;3.60;;
71038;SDS011;58692;43.212;27.908;2023-07-20T06:59:57;12.52;;;4.00;;
71038;SDS011;58692;43.212;27.908;2023-07-20T07:02:22;11.07;;;3.90;;
71038;SDS011;58692;43.212;27.908;2023-07-20T07:04:48;16.00;;;4.00;;
71038;SDS011;58692;43.212;27.908;2023-07-20T07:07:14;15.77;;;3.80;;
71038;SDS011;58692;43.212;27.908;2023-07-20T07:09:39;11.40;;;3.83;;
71038;SDS011;58692;43.212;27.908;2023-07-20T07:12:05;14.30;;;3.90;;
71038;SDS011;58692;43.212;27.908;2023-07-20T07:14:31;11.63;;;3.78;;
71038;SDS011;58692;43.212;27.908;2023-07-20T07:16:57;13.10;;;3.93;;
71038;SDS011;58692;43.212;27.908;2023-07-20T07:19:22;12.70;;;4.50;;
71038;SDS011;58692;43.212;27.908;2023-07-20T07:21:48;13.80;;;4.60;;
71038;SDS011;58692;43.212;27.908;2023-07-20T07:24:13;16.00;;;4.57;;
71038;SDS011;58692;43.212;27.908;2023-07-20T07:26:39;11.35;;;4.32;;
71038;SDS011;58692;43.212;27.908;2023-07-20T07:29:05;14.43;;;4.27;;
71038;SDS011;58692;43.212;27.908;2023-07-20T07:31:33;20.88;;;5.95;;
71038;SDS011;58692;43.212;27.908;2023-07-20T07:34:01;10.87;;;4.50;;
71038;SDS011;58692;43.212;27.908;2023-07-20T07:36:27;15.35;;;4.32;;
71038;SDS011;58692;43.212;27.908;2023-07-20T07:38:52;18.80;;;4.68;;
71038;SDS011;58692;43.212;27.908;2023-07-20T07:41:18;13.30;;;4.13;;
71038;SDS011;58692;43.212;27.908;2023-07-20T07:43:43;20.57;;;4.50;;
71038;SDS011;58692;43.212;27.908;2023-07-20T07:46:09;21.85;;;4.63;;
71038;SDS011;58692;43.212;27.908;2023-07-20T07:48:34;18.37;;;4.60;;
71038;SDS011;58692;43.212;27.908;2023-07-20T07:51:00;21.63;;;4.23;;
71038;SDS011;58692;43.212;27.908;2023-07-20T07:53:25;13.13;;;4.27;;
71038;SDS011;58692;43.212;27.908;2023-07-20T07:55:51;13.07;;;3.72;;
71038;SDS011;58692;43.212;27.908;2023-07-20T07:58:17;13.97;;;3.90;;
71038;SDS011;58692;43.212;27.908;2023-07-20T08:00:42;11.00;;;3.88;;
71038;SDS011;58692;43.212;27.908;2023-07-20T08:03:09;11.13;;;3.40;;
71038;SDS011;58692;43.212;27.908;2023-07-20T08:05:35;10.07;;;3.57;;
71038;SDS011;58692;43.212;27.908;2023-07-20T08:08:01;11.80;;;3.20;;
71038;SDS011;58692;43.212;27.908;2023-07-20T08:10:28;10.68;;;3.50;;
71038;SDS011;58692;43.212;27.908;2023-07-20T08:12:54;12.07;;;3.40;;
71038;SDS011;58692;43.212;27.908;2023-07-20T08:15:19;10.77;;;3.30;;
71038;SDS011;58692;43.212;27.908;2023-07-20T08:17:45;11.80;;;3.38;;
71038;SDS011;58692;43.212;27.908;2023-07-20T08:20:11;8.70;;;2.90;;
71038;SDS011;58692;43.212;27.908;2023-07-20T08:22:38;12.35;;;3.38;;
71038;SDS011;58692;43.212;27.908;2023-07-20T08:25:06;11.02;;;3.05;;
71038;SDS011;58692;43.212;27.908;2023-07-20T08:27:32;12.30;;;3.87;;
71038;SDS011;58692;43.212;27.908;2023-07-20T08:29:57;13.13;;;3.67;;
71038;SDS011;58692;43.212;27.908;2023-07-20T08:32:23;11.50;;;3.37;;
71038;SDS011;58692;43.212;27.908;2023-07-20T08:34:48;11.13;;;3.27;;
71038;SDS011;58692;43.212;27.908;2023-07-20T08:37:13;13.50;;;3.80;;
71038;SDS011;58692;43.212;27.908;2023-07-20T08:39:39;10.77;;;3.43;;
71038;SDS011;58692;43.212;27.908;2023-07-20T08:42:05;12.53;;;3.90;;
71038;SDS011;58692;43.212;27.908;2023-07-20T08:44:32;13.77;;;3.80;;
71038;SDS011;58692;43.212;27.908;2023-07-20T08:46:59;14.55;;;4.20;;
71038;SDS011;58692;43.212;27.908;2023-07-20T08:49:27;11.48;;;4.50;;
71038;SDS011;58692;43.212;27.908;2023-07-20T08:51:53;13.10;;;4.50;;
71038;SDS011;58692;43.212;27.908;2023-07-20T08:54:19;13.30;;;4.35;;
71038;SDS011;58692;43.212;27.908;2023-07-20T08:56:45;12.47;;;4.40;;
71038;SDS011;58692;43.212;27.908;2023-07-20T08:59:12;14.52;;;4.47;;
71038;SDS011;58692;43.212;27.908;2023-07-20T09:01:41;12.27;;;4.63;;
71038;SDS011;58692;43.212;27.908;2023-07-20T09:04:08;13.18;;;5.25;;
71038;SDS011;58692;43.212;27.908;2023-07-20T09:06:34;11.85;;;4.53;;
71038;SDS011;58692;43.212;27.908;2023-07-20T09:09:00;10.43;;;4.40;;
71038;SDS011;58692;43.212;27.908;2023-07-20T09:11:25;12.95;;;4.57;;
71038;SDS011;58692;43.212;27.908;2023-07-20T09:16:33;12.50;;;4.53;;
71038;SDS011;58692;43.212;27.908;2023-07-20T09:19:14;16.15;;;4.72;;
71038;SDS011;58692;43.212;27.908;2023-07-20T09:21:40;12.53;;;4.63;;
71038;SDS011;58692;43.212;27.908;2023-07-20T09:24:05;13.32;;;4.15;;
71038;SDS011;58692;43.212;27.908;2023-07-20T09:26:32;13.30;;;4.53;;
71038;SDS011;58692;43.212;27.908;2023-07-20T09:29:06;13.68;;;4.97;;
71038;SDS011;58692;43.212;27.908;2023-07-20T09:31:33;11.07;;;4.80;;
71038;SDS011;58692;43.212;27.908;2023-07-20T09:33:59;13.27;;;4.60;;
71038;SDS011;58692;43.212;27.908;2023-07-20T09:36:26;12.57;;;4.25;;
71038;SDS011;58692;43.212;27.908;2023-07-20T09:38:53;11.13;;;4.23;;
71038;SDS011;58692;43.212;27.908;2023-07-20T09:41:19;11.23;;;4.55;;
71038;SDS011;58692;43.212;27.908;2023-07-20T09:43:46;10.48;;;4.53;;
71038;SDS011;58692;43.212;27.908;2023-07-20T09:46:12;8.87;;;4.00;;
71038;SDS011;58692;43.212;27.908;2023-07-20T09:48:37;12.45;;;4.80;;
71038;SDS011;58692;43.212;27.908;2023-07-20T09:51:03;11.40;;;4.87;;
71038;SDS011;58692;43.212;27.908;2023-07-20T09:53:30;13.70;;;4.85;;
71038;SDS011;58692;43.212;27.908;2023-07-20T09:55:57;14.52;;;6.13;;
71038;SDS011;58692;43.212;27.908;2023-07-20T09:58:23;9.87;;;4.37;;
71038;SDS011;58692;43.212;27.908;2023-07-20T10:00:51;16.05;;;4.80;;
71038;SDS011;58692;43.212;27.908;2023-07-20T10:03:18;13.63;;;4.80;;
71038;SDS011;58692;43.212;27.908;2023-07-20T10:05:51;14.77;;;4.97;;
71038;SDS011;58692;43.212;27.908;2023-07-20T10:08:20;8.98;;;4.45;;
71038;SDS011;58692;43.212;27.908;2023-07-20T10:10:50;9.43;;;4.53;;
71038;SDS011;58692;43.212;27.908;2023-07-20T10:13:17;10.65;;;4.90;;
71038;SDS011;58692;43.212;27.908;2023-07-20T10:15:46;11.45;;;4.72;;
71038;SDS011;58692;43.212;27.908;2023-07-20T10:18:17;13.20;;;5.70;;
71038;SDS011;58692;43.212;27.908;2023-07-20T10:20:48;13.85;;;5.07;;
71038;SDS011;58692;43.212;27.908;2023-07-20T10:23:16;11.48;;;5.18;;
71038;SDS011;58692;43.212;27.908;2023-07-20T10:25:42;11.48;;;5.20;;
71038;SDS011;58692;43.212;27.908;2023-07-20T10:28:09;11.68;;;4.95;;
71038;SDS011;58692;43.212;27.908;2023-07-20T10:30:35;13.10;;;5.40;;
71038;SDS011;58692;43.212;27.908;2023-07-20T10:33:03;11.15;;;5.22;;
71038;SDS011;58692;43.212;27.908;2023-07-20T10:35:29;14.30;;;4.97;;
71038;SDS011;58692;43.212;27.908;2023-07-20T10:38:03;16.10;;;5.47;;
71038;SDS011;58692;43.212;27.908;2023-07-20T10:40:32;11.70;;;4.80;;
71038;SDS011;58692;43.212;27.908;2023-07-20T10:43:00;9.83;;;4.70;;
71038;SDS011;58692;43.212;27.908;2023-07-20T10:50:43;11.90;;;4.97;;
71038;SDS011;58692;43.212;27.908;2023-07-20T10:53:12;10.98;;;4.70;;
71038;SDS011;58692;43.212;27.908;2023-07-20T10:55:40;12.98;;;5.07;;
71038;SDS011;58692;43.212;27.908;2023-07-20T11:00:35;11.55;;;5.18;;
71038;SDS011;58692;43.212;27.908;2023-07-20T11:03:01;10.83;;;4.80;;
71038;SDS011;58692;43.212;27.908;2023-07-20T11:05:35;10.73;;;4.70;;
71038;SDS011;58692;43.212;27.908;2023-07-20T11:08:03;11.68;;;4.78;;
71038;SDS011;58692;43.212;27.908;2023-07-20T11:10:30;9.18;;;4.85;;
71038;SDS011;58692;43.212;27.908;2023-07-20T11:18:12;12.38;;;4.32;;
71038;SDS011;58692;43.212;27.908;2023-07-20T11:20:39;12.20;;;4.57;;
71038;SDS011;58692;43.212;27.908;2023-07-20T11:23:05;11.23;;;4.03;;
71038;SDS011;58692;43.212;27.908;2023-07-20T11:25:39;11.73;;;4.35;;
71038;SDS011;58692;43.212;27.908;2023-07-20T11:28:07;12.15;;;4.82;;
71038;SDS011;58692;43.212;27.908;2023-07-20T11:30:33;11.35;;;4.50;;
71038;SDS011;58692;43.212;27.908;2023-07-20T11:32:59;13.43;;;5.10;;
71038;SDS011;58692;43.212;27.908;2023-07-20T11:35:25;15.20;;;4.83;;
71038;SDS011;58692;43.212;27.908;2023-07-20T11:37:50;14.93;;;5.50;;
71038;SDS011;58692;43.212;27.908;2023-07-20T11:40:16;11.43;;;5.50;;
71038;SDS011;58692;43.212;27.908;2023-07-20T11:42:41;9.53;;;4.57;;
71038;SDS011;58692;43.212;27.908;2023-07-20T11:45:09;11.82;;;4.20;;
71038;SDS011;58692;43.212;27.908;2023-07-20T11:47:39;11.73;;;5.28;;
71038;SDS011;58692;43.212;27.908;2023-07-20T11:50:07;13.27;;;4.80;;
71038;SDS011;58692;43.212;27.908;2023-07-20T11:52:33;11.02;;;4.75;;
71038;SDS011;58692;43.212;27.908;2023-07-20T11:54:59;12.63;;;4.57;;
71038;SDS011;58692;43.212;27.908;2023-07-20T11:57:24;9.45;;;4.55;;
71038;SDS011;58692;43.212;27.908;2023-07-20T11:59:53;10.57;;;4.57;;
71038;SDS011;58692;43.212;27.908;2023-07-20T12:02:22;15.60;;;4.85;;
71038;SDS011;58692;43.212;27.908;2023-07-20T12:04:50;8.97;;;4.53;;
71038;SDS011;58692;43.212;27.908;2023-07-20T12:07:17;12.88;;;4.75;;
71038;SDS011;58692;43.212;27.908;2023-07-20T12:09:44;12.88;;;4.82;;
71038;SDS011;58692;43.212;27.908;2023-07-20T12:12:10;11.93;;;4.60;;
71038;SDS011;58692;43.212;27.908;2023-07-20T12:14:37;11.82;;;5.07;;
71038;SDS011;58692;43.212;27.908;2023-07-20T12:17:03;14.60;;;5.20;;
71038;SDS011;58692;43.212;27.908;2023-07-20T12:19:28;13.17;;;5.07;;
71038;SDS011;58692;43.212;27.908;2023-07-20T12:21:56;15.57;;;5.28;;
71038;SDS011;58692;43.212;27.908;2023-07-20T12:24:24;10.13;;;5.07;;
71038;SDS011;58692;43.212;27.908;2023-07-20T12:26:55;11.65;;;4.68;;
71038;SDS011;58692;43.212;27.908;2023-07-20T12:29:23;10.73;;;4.97;;
71038;SDS011;58692;43.212;27.908;2023-07-20T12:31:48;10.77;;;4.50;;
71038;SDS011;58692;43.212;27.908;2023-07-20T12:34:14;11.80;;;4.60;;
71038;SDS011;58692;43.212;27.908;2023-07-20T12:36:40;12.65;;;4.90;;
71038;SDS011;58692;43.212;27.908;2023-07-20T12:39:05;11.60;;;5.00;;
71038;SDS011;58692;43.212;27.908;2023-07-20T12:41:31;13.80;;;5.13;;
71038;SDS011;58692;43.212;27.908;2023-07-20T12:43:56;11.83;;;4.67;;
71038;SDS011;58692;43.212;27.908;2023-07-20T12:46:23;12.70;;;4.90;;
71038;SDS011;58692;43.212;27.908;2023-07-20T12:48:49;14.70;;;5.30;;
71038;SDS011;58692;43.212;27.908;2023-07-20T12:51:14;12.03;;;4.60;;
71038;SDS011;58692;43.212;27.908;2023-07-20T12:53:40;11.77;;;4.50;;
71038;SDS011;58692;43.212;27.908;2023-07-20T12:56:05;10.47;;;4.50;;
71038;SDS011;58692;43.212;27.908;2023-07-20T12:58:31;13.63;;;4.75;;
71038;SDS011;58692;43.212;27.908;2023-07-20T13:00:57;12.80;;;4.40;;
71038;SDS011;58692;43.212;27.908;2023-07-20T13:03:23;16.97;;;4.30;;
71038;SDS011;58692;43.212;27.908;2023-07-20T13:05:50;14.95;;;4.57;;
71038;SDS011;58692;43.212;27.908;2023-07-20T13:08:16;9.30;;;4.77;;
71038;SDS011;58692;43.212;27.908;2023-07-20T13:10:41;11.15;;;4.80;;
71038;SDS011;58692;43.212;27.908;2023-07-20T13:13:08;16.03;;;4.90;;
71038;SDS011;58692;43.212;27.908;2023-07-20T13:15:41;12.38;;;4.93;;
71038;SDS011;58692;43.212;27.908;2023-07-20T13:18:08;13.40;;;5.20;;
71038;SDS011;58692;43.212;27.908;2023-07-20T13:20:34;13.17;;;5.57;;
71038;SDS011;58692;43.212;27.908;2023-07-20T13:22:59;13.80;;;5.30;;
71038;SDS011;58692;43.212;27.908;2023-07-20T13:25:25;14.03;;;5.23;;
71038;SDS011;58692;43.212;27.908;2023-07-20T13:27:50;16.58;;;6.18;;
71038;SDS011;58692;43.212;27.908;2023-07-20T13:30:16;11.57;;;5.00;;
71038;SDS011;58692;43.212;27.908;2023-07-20T13:32:43;11.05;;;5.20;;
71038;SDS011;58692;43.212;27.908;2023-07-20T13:35:09;10.45;;;4.80;;
71038;SDS011;58692;43.212;27.908;2023-07-20T13:37:35;10.87;;;4.87;;
71038;SDS011;58692;43.212;27.908;2023-07-20T13:40:01;11.30;;;4.88;;
71038;SDS011;58692;43.212;27.908;2023-07-20T13:42:28;12.87;;;5.23;;
71038;SDS011;58692;43.212;27.908;2023-07-20T13:44:54;12.23;;;5.10;;
71038;SDS011;58692;43.212;27.908;2023-07-20T13:47:19;11.17;;;4.90;;
71038;SDS011;58692;43.212;27.908;2023-07-20T13:49:45;11.88;;;5.65;;
71038;SDS011;58692;43.212;27.908;2023-07-20T13:52:10;13.77;;;5.50;;
71038;SDS011;58692;43.212;27.908;2023-07-20T13:54:36;13.10;;;6.13;;
71038;SDS011;58692;43.212;27.908;2023-07-20T13:57:01;11.10;;;5.50;;
71038;SDS011;58692;43.212;27.908;2023-07-20T13:59:27;11.70;;;5.97;;
71038;SDS011;58692;43.212;27.908;2023-07-20T14:01:53;14.23;;;5.93;;
71038;SDS011;58692;43.212;27.908;2023-07-20T14:04:18;10.37;;;5.77;;
71038;SDS011;58692;43.212;27.908;2023-07-20T14:06:44;11.07;;;5.87;;
71038;SDS011;58692;43.212;27.908;2023-07-20T14:09:09;12.07;;;5.70;;
71038;SDS011;58692;43.212;27.908;2023-07-20T14:11:34;14.10;;;5.87;;
71038;SDS011;58692;43.212;27.908;2023-07-20T14:14:00;11.17;;;5.43;;
71038;SDS011;58692;43.212;27.908;2023-07-20T14:16:25;13.52;;;5.95;;
71038;SDS011;58692;43.212;27.908;2023-07-20T14:18:51;12.90;;;6.00;;
71038;SDS011;58692;43.212;27.908;2023-07-20T14:21:18;13.23;;;6.03;;
71038;SDS011;58692;43.212;27.908;2023-07-20T14:23:45;9.77;;;5.38;;
71038;SDS011;58692;43.212;27.908;2023-07-20T14:26:12;12.03;;;6.03;;
71038;SDS011;58692;43.212;27.908;2023-07-20T14:28:38;12.30;;;5.70;;
71038;SDS011;58692;43.212;27.908;2023-07-20T14:31:04;11.33;;;5.70;;
71038;SDS011;58692;43.212;27.908;2023-07-20T14:33:30;14.27;;;6.43;;
71038;SDS011;58692;43.212;27.908;2023-07-20T14:35:56;11.88;;;5.97;;
71038;SDS011;58692;43.212;27.908;2023-07-20T14:38:21;16.00;;;6.17;;
71038;SDS011;58692;43.212;27.908;2023-07-20T14:40:47;11.40;;;6.05;;
71038;SDS011;58692;43.212;27.908;2023-07-20T14:43:12;11.30;;;6.10;;